Time;durP1;ratioP1;P1;durP2;ratioP2;P2;SDS_P1;SDS_P2;PMS_P1;PMS_P2;Temp;Humidity;BMP_temperature;BMP_pressure;BME280_temperature;BME280_humidity;BME280_pressure;Samples;Min_cycle;Max_cycle;Signal;HPM_P1;HPM_P2
2022/10/25 00:02:14;;;;;;;10.52;5.35;;;;;;;12.06;100.00;100264.06;4934212;29;20120;-74
2022/10/25 00:04:39;;;;;;;16.25;6.53;;;;;;;12.04;100.00;100266.94;4928620;29;20106;-75
2022/10/25 00:07:05;;;;;;;14.93;5.40;;;;;;;12.00;100.00;100268.31;4928070;29;20031;-76
2022/10/25 00:09:30;;;;;;;14.67;5.97;;;;;;;11.99;100.00;100272.03;4928761;29;20473;-74
2022/10/25 00:11:55;;;;;;;16.53;6.07;;;;;;;12.07;100.00;100265.75;4912319;29;20043;-75
2022/10/25 00:14:21;;;;;;;17.50;6.00;;;;;;;11.99;100.00;100264.00;4928553;29;20031;-74
2022/10/25 00:16:46;;;;;;;23.27;7.10;;;;;;;11.96;100.00;100264.34;4929216;29;20032;-75
2022/10/25 00:19:13;;;;;;;10.53;5.63;;;;;;;11.89;100.00;100258.88;4928719;29;20063;-76
2022/10/25 00:21:38;;;;;;;20.25;6.70;;;;;;;11.87;100.00;100266.28;4912101;29;20075;-75
2022/10/25 00:24:04;;;;;;;17.70;6.47;;;;;;;11.84;100.00;100272.78;4929870;29;20036;-75
2022/10/25 00:26:29;;;;;;;17.45;6.32;;;;;;;11.90;100.00;100279.28;4928871;29;20115;-75
2022/10/25 00:28:56;;;;;;;12.55;5.45;;;;;;;11.93;100.00;100276.25;4928211;29;20038;-75
2022/10/25 00:31:23;;;;;;;21.47;6.93;;;;;;;11.97;100.00;100282.06;4929546;29;20028;-75
2022/10/25 00:33:48;;;;;;;20.55;6.00;;;;;;;12.00;100.00;100276.34;4929564;29;20044;-75
2022/10/25 00:36:20;;;;;;;20.33;6.33;;;;;;;12.04;100.00;100285.69;4927693;29;20042;-75
2022/10/25 00:38:46;;;;;;;20.40;5.97;;;;;;;11.99;100.00;100280.03;4929292;29;20038;-75
2022/10/25 00:41:17;;;;;;;16.10;5.25;;;;;;;12.03;100.00;100284.84;4933678;29;20028;-75
2022/10/25 00:43:51;;;;;;;12.90;5.30;;;;;;;12.00;100.00;100276.34;4928010;29;20047;-75
2022/10/25 00:46:19;;;;;;;20.98;5.65;;;;;;;12.03;100.00;100284.84;4911795;29;20032;-75
2022/10/25 00:48:56;;;;;;;17.77;5.38;;;;;;;12.10;100.00;100284.09;4933335;29;20027;-75
2022/10/25 00:51:35;;;;;;;14.73;5.07;;;;;;;12.12;100.00;100290.09;4939902;29;20054;-75
2022/10/25 00:54:01;;;;;;;17.65;5.05;;;;;;;12.09;100.00;100280.59;4944194;28;20444;-75
2022/10/25 00:56:29;;;;;;;16.80;5.07;;;;;;;12.08;100.00;100286.13;4928695;29;20110;-75
2022/10/25 00:59:00;;;;;;;13.82;4.57;;;;;;;12.11;100.00;100277.75;4927830;29;20032;-75
2022/10/25 01:01:26;;;;;;;20.02;5.72;;;;;;;12.07;100.00;100263.06;4929283;29;20036;-74
2022/10/25 01:03:54;;;;;;;13.05;5.32;;;;;;;12.04;100.00;100267.78;4927767;29;20038;-75
2022/10/25 01:06:25;;;;;;;21.52;5.25;;;;;;;12.04;100.00;100281.16;4931658;29;20122;-75
2022/10/25 01:08:52;;;;;;;16.77;5.00;;;;;;;11.98;100.00;100268.50;4912283;29;20042;-75
2022/10/25 01:11:18;;;;;;;18.05;4.43;;;;;;;11.99;100.00;100285.41;4928931;29;20035;-75
2022/10/25 01:13:44;;;;;;;26.27;5.10;;;;;;;11.98;100.00;100279.19;4930424;29;20098;-76
2022/10/25 01:16:30;;;;;;;15.00;4.32;;;;;;;11.95;100.00;100279.56;4930046;29;20493;-75
2022/10/25 01:19:33;;;;;;;17.25;4.00;;;;;;;11.90;100.00;100281.16;4911646;29;20052;-76
2022/10/25 01:22:21;;;;;;;23.65;3.78;;;;;;;11.90;100.00;100281.97;4904027;29;20044;-75
2022/10/25 01:25:02;;;;;;;15.52;4.25;;;;;;;11.86;100.00;100290.50;4926650;29;20039;-75
2022/10/25 01:27:45;;;;;;;10.43;3.55;;;;;;;11.86;100.00;100285.16;4928745;29;20067;-76
2022/10/25 01:30:17;;;;;;;26.67;4.72;;;;;;;11.86;100.00;100280.63;4931636;29;20050;-74
2022/10/25 01:32:48;;;;;;;16.10;4.28;;;;;;;11.86;100.00;100283.31;4911503;29;20031;-76
2022/10/25 01:35:28;;;;;;;18.33;4.28;;;;;;;11.83;100.00;100281.00;4931379;29;20886;-75
2022/10/25 01:37:59;;;;;;;17.73;4.03;;;;;;;11.82;100.00;100279.31;4930332;29;20802;-75
2022/10/25 01:40:54;;;;;;;26.05;4.75;;;;;;;11.78;100.00;100276.19;4911546;29;20639;-76
2022/10/25 01:43:37;;;;;;;13.93;4.45;;;;;;;11.73;100.00;100281.28;4930388;29;20039;-76
2022/10/25 01:46:30;;;;;;;16.48;3.60;;;;;;;11.63;100.00;100272.66;4937278;28;20733;-75
2022/10/25 01:49:02;;;;;;;23.00;4.43;;;;;;;11.57;100.00;100278.75;4906607;29;20083;-76
2022/10/25 01:51:30;;;;;;;20.88;5.00;;;;;;;11.55;100.00;100281.59;4932895;29;20063;-74
2022/10/25 01:53:55;;;;;;;18.15;4.50;;;;;;;11.55;100.00;100278.91;4932268;29;20024;-75
2022/10/25 01:56:28;;;;;;;23.17;5.70;;;;;;;11.48;100.00;100277.97;4926462;29;20405;-76
2022/10/25 01:59:45;;;;;;;14.88;4.35;;;;;;;11.41;100.00;100288.53;4927916;29;20031;-75
2022/10/25 02:02:28;;;;;;;22.50;4.72;;;;;;;11.34;100.00;100298.28;4906524;29;20493;-76
2022/10/25 02:05:24;;;;;;;20.63;4.65;;;;;;;11.34;100.00;100295.63;4905649;29;20036;-75
2022/10/25 02:08:15;;;;;;;16.90;4.80;;;;;;;11.39;100.00;100295.91;4906447;29;20040;-75
2022/10/25 02:10:49;;;;;;;17.77;4.78;;;;;;;11.38;100.00;100299.59;4904989;29;20605;-75
2022/10/25 02:13:39;;;;;;;13.77;4.13;;;;;;;11.35;100.00;100302.59;4904403;29;20066;-76
2022/10/25 02:16:11;;;;;;;20.42;5.22;;;;;;;11.30;100.00;100302.31;4909282;29;20050;-76
2022/10/25 02:18:40;;;;;;;23.00;6.68;;;;;;;11.27;100.00;100307.19;4925194;29;20537;-76
2022/10/25 02:21:09;;;;;;;18.58;4.88;;;;;;;11.20;100.00;100302.56;4925528;29;20044;-75
2022/10/25 02:23:36;;;;;;;15.90;5.28;;;;;;;11.18;100.00;100306.41;4906967;29;20822;-74
2022/10/25 02:26:04;;;;;;;25.10;7.00;;;;;;;11.14;100.00;100313.97;4905993;29;20096;-76
2022/10/25 02:28:33;;;;;;;19.65;6.55;;;;;;;11.14;100.00;100307.78;4887086;29;20127;-75
2022/10/25 02:31:00;;;;;;;16.52;5.93;;;;;;;11.11;100.00;100311.63;4896127;29;20092;-76
2022/10/25 02:33:25;;;;;;;;;;;;;;;11.10;100.00;100307.31;4902984;29;20039;-75
2022/10/25 02:36:09;;;;;;;24.25;6.65;;;;;;;11.11;100.00;100316.97;4906743;29;20340;-75
2022/10/25 02:38:34;;;;;;;24.33;7.97;;;;;;;11.10;100.00;100317.16;4929466;29;20056;-76
2022/10/25 02:41:03;;;;;;;18.67;8.13;;;;;;;11.04;100.00;100307.19;4934689;29;20691;-76
2022/10/25 02:43:28;;;;;;;30.77;7.88;;;;;;;10.98;100.00;100314.06;4931790;29;20043;-76
2022/10/25 02:45:53;;;;;;;23.33;8.17;;;;;;;10.97;100.00;100318.56;4930919;29;20032;-76
2022/10/25 02:48:19;;;;;;;24.97;8.27;;;;;;;10.93;100.00;100317.25;4929920;29;20028;-75
2022/10/25 02:50:44;;;;;;;22.63;7.97;;;;;;;11.01;100.00;100323.56;4931187;29;20482;-75
2022/10/25 02:53:09;;;;;;;14.47;7.73;;;;;;;11.06;100.00;100315.84;4914046;29;20115;-75
2022/10/25 02:55:35;;;;;;;22.17;7.80;;;;;;;11.05;100.00;100311.50;4931205;29;20547;-75
2022/10/25 02:58:00;;;;;;;25.93;9.90;;;;;;;11.04;100.00;100326.69;4931158;29;20118;-75
2022/10/25 03:00:25;;;;;;;21.73;8.37;;;;;;;11.04;100.00;100323.19;4914144;29;20473;-76
2022/10/25 03:02:51;;;;;;;22.13;9.20;;;;;;;11.04;100.00;100312.53;4934181;29;20167;-75
2022/10/25 03:05:16;;;;;;;24.40;10.53;;;;;;;11.13;100.00;100311.47;4916895;29;20672;-76
2022/10/25 03:07:41;;;;;;;28.33;11.03;;;;;;;11.16;100.00;100314.59;4933795;29;20357;-75
2022/10/25 03:10:07;;;;;;;23.80;11.23;;;;;;;11.16;100.00;100327.97;4929783;29;20079;-76
2022/10/25 03:12:33;;;;;;;26.50;10.48;;;;;;;11.22;100.00;100326.44;4939032;29;20027;-76
2022/10/25 03:14:58;;;;;;;25.20;13.07;;;;;;;11.27;100.00;100329.41;4932683;29;20088;-75
2022/10/25 03:17:23;;;;;;;26.47;13.33;;;;;;;11.32;100.00;100332.38;4929889;29;20070;-74
2022/10/25 03:19:48;;;;;;;24.43;13.37;;;;;;;11.37;100.00;100330.00;4934830;28;20035;-74
2022/10/25 03:22:14;;;;;;;29.80;13.57;;;;;;;11.45;100.00;100336.28;4933964;29;20043;-75
2022/10/25 03:24:39;;;;;;;31.33;12.77;;;;;;;11.47;100.00;100335.13;4929401;29;20078;-75
2022/10/25 03:27:05;;;;;;;42.47;15.93;;;;;;;11.48;100.00;100330.59;4928908;29;20093;-76
2022/10/25 03:29:30;;;;;;;31.27;12.87;;;;;;;11.50;100.00;100332.09;4930824;29;20075;-76
2022/10/25 03:31:55;;;;;;;44.90;14.97;;;;;;;11.52;100.00;100334.56;4932478;29;20078;-75
2022/10/25 03:34:21;;;;;;;26.50;13.90;;;;;;;11.58;100.00;100341.88;4932744;29;20027;-76
2022/10/25 03:36:46;;;;;;;39.03;14.17;;;;;;;11.61;100.00;100341.50;4929865;29;20481;-76
2022/10/25 03:39:12;;;;;;;33.17;15.93;;;;;;;11.62;100.00;100344.03;4930445;29;20110;-76
2022/10/25 03:41:37;;;;;;;40.87;15.93;;;;;;;11.63;100.00;100339.50;4928973;29;20087;-76
2022/10/25 03:44:02;;;;;;;29.23;15.13;;;;;;;11.69;100.00;100346.00;4939272;29;20140;-75
2022/10/25 03:46:28;;;;;;;32.50;15.23;;;;;;;11.69;100.00;100340.63;4934209;28;20035;-74
2022/10/25 03:48:53;;;;;;;26.93;13.60;;;;;;;11.70;100.00;100342.28;4930394;29;20295;-76
2022/10/25 03:51:18;;;;;;;32.00;14.77;;;;;;;11.74;100.00;100351.63;4929084;29;20529;-74
2022/10/25 03:53:44;;;;;;;38.70;14.20;;;;;;;11.69;100.00;100348.66;4930467;28;20504;-76
2022/10/25 03:56:09;;;;;;;31.87;15.90;;;;;;;11.71;100.00;100347.47;4933679;29;20412;-76
2022/10/25 03:58:34;;;;;;;31.73;15.60;;;;;;;11.78;100.00;100350.25;4935942;28;20102;-75
2022/10/25 04:01:00;;;;;;;30.87;14.63;;;;;;;11.77;100.00;100346.72;4934620;29;20023;-76
2022/10/25 04:03:25;;;;;;;27.13;13.63;;;;;;;11.74;100.00;100349.78;4940566;28;20035;-76
2022/10/25 04:05:50;;;;;;;35.77;16.53;;;;;;;11.80;100.00;100346.38;4935731;29;20043;-76
2022/10/25 04:08:16;;;;;;;31.90;13.37;;;;;;;11.79;100.00;100336.69;4936158;29;20039;-76
2022/10/25 04:10:41;;;;;;;30.77;12.83;;;;;;;11.84;100.00;100346.84;4933168;28;20042;-75
2022/10/25 04:13:07;;;;;;;37.47;15.80;;;;;;;11.82;100.00;100343.50;4918296;29;20077;-75
2022/10/25 04:15:32;;;;;;;26.77;14.87;;;;;;;11.81;100.00;100353.38;4939233;28;20035;-76
2022/10/25 04:17:57;;;;;;;27.90;14.47;;;;;;;11.86;100.00;100352.03;4938178;29;20028;-75
2022/10/25 04:20:23;;;;;;;37.20;13.97;;;;;;;11.91;100.00;100355.00;4928108;29;20036;-76
2022/10/25 04:22:53;;;;;;;36.97;15.20;;;;;;;11.85;100.00;100343.19;4931233;29;20059;-75
2022/10/25 04:25:18;;;;;;;29.55;14.20;;;;;;;11.92;100.00;100359.38;4915439;29;20826;-75
2022/10/25 04:27:43;;;;;;;32.07;13.80;;;;;;;11.89;100.00;100344.50;4932485;28;20241;-75
2022/10/25 04:30:09;;;;;;;28.97;12.00;;;;;;;11.87;100.00;100345.66;4912316;29;20066;-76
2022/10/25 04:32:34;;;;;;;38.00;13.50;;;;;;;11.89;100.00;100349.00;4928019;29;20036;-76
2022/10/25 04:35:00;;;;;;;42.57;14.33;;;;;;;11.89;100.00;100349.00;4933146;29;20036;-75
2022/10/25 04:37:25;;;;;;;30.63;12.90;;;;;;;11.86;100.00;100349.34;4931636;29;20035;-76
2022/10/25 04:39:50;;;;;;;32.70;12.50;;;;;;;11.89;100.00;100339.13;4931288;29;20043;-76
2022/10/25 04:42:18;;;;;;;33.37;13.33;;;;;;;11.86;100.00;100344.81;4937125;29;20064;-75
2022/10/25 04:44:43;;;;;;;28.55;12.70;;;;;;;11.86;100.00;100339.47;4934956;28;20877;-74
2022/10/25 04:47:09;;;;;;;31.37;13.80;;;;;;;11.91;100.00;100344.31;4935527;29;20043;-75
2022/10/25 04:49:34;;;;;;;31.40;11.90;;;;;;;11.90;100.00;100340.00;4933241;29;20031;-75
2022/10/25 04:52:00;;;;;;;37.53;13.53;;;;;;;11.91;100.00;100347.00;4934803;29;20039;-76
2022/10/25 04:54:25;;;;;;;34.07;12.20;;;;;;;11.93;100.00;100342.28;4941144;28;20039;-76
2022/10/25 04:56:50;;;;;;;36.57;13.07;;;;;;;11.90;100.00;100351.50;4936456;28;20032;-75
2022/10/25 04:59:16;;;;;;;31.63;13.20;;;;;;;11.94;100.00;100358.19;4937019;28;20639;-76
2022/10/25 05:01:41;;;;;;;23.30;11.23;;;;;;;11.92;100.00;100354.03;4932666;28;20028;-76
2022/10/25 05:04:06;;;;;;;27.77;12.93;;;;;;;11.95;100.00;100350.97;4931949;29;20037;-76
2022/10/25 05:06:31;;;;;;;34.00;12.73;;;;;;;11.91;100.00;100352.34;4930302;29;20040;-76
2022/10/25 05:08:57;;;;;;;27.23;12.07;;;;;;;11.92;100.00;100352.16;4911693;29;20032;-75
2022/10/25 05:11:23;;;;;;;31.73;13.93;;;;;;;11.91;100.00;100349.66;4939663;28;20067;-75
2022/10/25 05:13:49;;;;;;;;;;;;;;;11.98;100.00;100369.31;4928463;28;20047;-75
2022/10/25 05:16:20;;;;;;;29.70;13.05;;;;;;;11.95;100.00;100369.69;4927431;29;20304;-77
2022/10/25 05:18:45;;;;;;;33.88;13.88;;;;;;;11.96;100.00;100376.69;4930749;28;20150;-77
2022/10/25 05:21:12;;;;;;;37.65;12.15;;;;;;;11.89;100.00;100375.75;4928346;29;20055;-76
2022/10/25 05:23:37;;;;;;;;;;;;;;;11.84;100.00;100390.47;4936170;29;20634;-77
2022/10/25 05:26:15;;;;;;;34.40;13.93;;;;;;;11.78;100.00;100388.53;4937208;29;20057;-77
2022/10/25 05:28:41;;;;;;;30.88;13.82;;;;;;;11.73;100.00;100398.94;4935600;28;20508;-77
2022/10/25 05:31:22;;;;;;;35.92;14.63;;;;;;;11.76;100.00;100409.25;4934778;29;20143;-76
2022/10/25 05:33:49;;;;;;;41.00;15.68;;;;;;;11.74;100.00;100411.28;4937735;29;20090;-76
2022/10/25 05:36:15;;;;;;;32.42;16.02;;;;;;;11.74;100.00;100410.47;4936452;29;20039;-77
2022/10/25 05:38:41;;;;;;;31.13;14.45;;;;;;;11.77;100.00;100420.78;4932442;28;20019;-78
2022/10/25 05:41:08;;;;;;;25.90;12.98;;;;;;;11.80;100.00;100415.94;4931874;29;20039;-76
2022/10/25 05:43:34;;;;;;;31.27;14.63;;;;;;;11.78;100.00;100427.81;4917064;29;20047;-75
2022/10/25 05:46:04;;;;;;;34.80;14.47;;;;;;;11.74;100.00;100427.34;4935288;29;20059;-76
2022/10/25 05:48:30;;;;;;;38.92;15.52;;;;;;;11.77;100.00;100431.50;4940007;28;20110;-78
2022/10/25 05:51:07;;;;;;;42.15;16.20;;;;;;;11.70;100.00;100426.00;4936372;28;20560;-76
2022/10/25 05:53:32;;;;;;;38.00;16.00;;;;;;;11.68;100.00;100438.72;4937618;29;20035;-78
2022/10/25 05:56:01;;;;;;;38.20;16.27;;;;;;;11.70;100.00;100436.72;4930357;29;20032;-76
2022/10/25 05:58:26;;;;;;;39.83;16.00;;;;;;;11.71;100.00;100429.53;4911701;29;20032;-77
2022/10/25 06:00:52;;;;;;;34.50;15.57;;;;;;;11.71;100.00;100435.72;4927639;29;20079;-76
2022/10/25 06:03:17;;;;;;;38.50;15.90;;;;;;;11.74;100.00;100437.19;4930135;29;21110;-77
2022/10/25 06:05:42;;;;;;;36.53;15.37;;;;;;;11.73;100.00;100441.72;4928904;29;20141;-76
2022/10/25 06:08:08;;;;;;;42.70;16.73;;;;;;;11.75;100.00;100431.69;4942200;29;20063;-77
2022/10/25 06:10:33;;;;;;;48.37;17.33;;;;;;;11.80;100.00;100449.88;4940743;28;20073;-75
2022/10/25 06:13:00;;;;;;;31.27;14.97;;;;;;;11.81;100.00;100441.66;4936867;29;20051;-75
2022/10/25 06:15:25;;;;;;;34.85;14.30;;;;;;;11.82;100.00;100443.34;4940502;28;20028;-77
2022/10/25 06:17:51;;;;;;;46.67;15.77;;;;;;;11.83;100.00;100441.47;4936388;29;20568;-76
2022/10/25 06:20:16;;;;;;;34.20;14.53;;;;;;;11.83;100.00;100442.31;4918706;29;20043;-77
2022/10/25 06:22:42;;;;;;;35.73;14.40;;;;;;;11.87;100.00;100441.94;4937934;28;20035;-77
2022/10/25 06:25:08;;;;;;;40.53;14.55;;;;;;;11.90;100.00;100436.28;4940450;29;20091;-77
2022/10/25 06:27:33;;;;;;;35.35;13.07;;;;;;;11.91;100.00;100443.28;4942013;29;20039;-74
2022/10/25 06:29:58;;;;;;;31.10;13.20;;;;;;;11.91;100.00;100443.28;4936241;29;20075;-75
2022/10/25 06:32:24;;;;;;;36.97;13.60;;;;;;;11.89;100.00;100448.81;4915582;29;20091;-76
2022/10/25 06:34:49;;;;;;;35.20;15.20;;;;;;;11.84;100.00;100457.34;4932818;28;20039;-76
2022/10/25 06:37:14;;;;;;;29.00;13.43;;;;;;;11.91;100.00;100454.81;4914966;29;20036;-77
2022/10/25 06:39:40;;;;;;;38.17;13.33;;;;;;;11.93;100.00;100458.16;4932047;29;20032;-76
2022/10/25 06:42:05;;;;;;;39.07;14.10;;;;;;;11.92;100.00;100464.53;4931124;29;20032;-75
2022/10/25 06:44:30;;;;;;;29.83;12.10;;;;;;;11.97;100.00;100454.13;4930651;29;20055;-77
2022/10/25 06:46:59;;;;;;;28.70;11.27;;;;;;;11.97;100.00;100458.66;4906983;29;20040;-77
2022/10/25 06:49:24;;;;;;;31.73;12.98;;;;;;;11.97;100.00;100454.13;4937261;29;20489;-77
2022/10/25 06:51:49;;;;;;;44.83;13.83;;;;;;;11.91;100.00;100454.81;4940621;28;20042;-76
2022/10/25 06:54:15;;;;;;;32.67;13.60;;;;;;;11.98;100.00;100460.28;4941659;29;20157;-77
2022/10/25 06:56:40;;;;;;;30.10;11.33;;;;;;;12.00;100.00;100463.63;4934716;28;20040;-76
2022/10/25 06:59:06;;;;;;;34.70;13.00;;;;;;;12.02;100.00;100472.31;4946478;29;20116;-76
2022/10/25 07:01:31;;;;;;;39.35;12.77;;;;;;;11.97;100.00;100464.00;4958743;28;20035;-77
2022/10/25 07:03:57;;;;;;;29.00;14.30;;;;;;;12.03;100.00;100473.97;4930838;29;20489;-77
2022/10/25 07:06:23;;;;;;;33.65;12.25;;;;;;;12.04;100.00;100472.97;4945762;28;20820;-77
2022/10/25 07:08:55;;;;;;;30.48;12.65;;;;;;;12.13;100.00;100476.41;4941512;28;20469;-77
2022/10/25 07:11:21;;;;;;;30.60;13.35;;;;;;;12.18;100.00;100476.72;4934789;29;20118;-77
2022/10/25 07:13:47;;;;;;;;;;;;;;;12.19;100.00;100479.19;4930884;29;20039;-78
2022/10/25 07:16:13;;;;;;;;;;;;;;;12.14;100.00;100478.06;4944064;29;20835;-77
2022/10/25 07:18:39;;;;;;;;;;;;;;;12.14;100.00;100475.41;4946240;28;20013;-78
2022/10/25 07:21:13;;;;;;;38.67;14.95;;;;;;;12.12;100.00;100483.59;4937814;28;19998;-76
2022/10/25 07:23:41;;;;;;;40.00;16.48;;;;;;;12.17;100.00;100491.91;4930684;29;20038;-75
2022/10/25 07:26:25;;;;;;;32.13;13.75;;;;;;;12.15;100.00;100485.94;4943962;28;20039;-77
2022/10/25 07:28:54;;;;;;;27.13;13.23;;;;;;;12.21;100.00;100493.22;4909608;29;20031;-76
2022/10/25 07:31:23;;;;;;;35.60;12.95;;;;;;;12.23;100.00;100482.34;4923706;28;20425;-76
2022/10/25 07:33:50;;;;;;;33.97;15.27;;;;;;;12.33;100.00;100490.13;4915283;28;20811;-76
2022/10/25 07:36:16;;;;;;;30.17;13.10;;;;;;;12.30;100.00;100474.44;4948630;29;20085;-76
2022/10/25 07:38:41;;;;;;;34.58;14.23;;;;;;;12.34;100.00;100483.75;4954426;28;20035;-76
2022/10/25 07:41:07;;;;;;;29.77;13.67;;;;;;;12.42;100.00;100491.72;4936526;29;20044;-78
2022/10/25 07:43:33;;;;;;;31.05;12.40;;;;;;;12.54;100.00;100492.13;4941681;28;20061;-76
2022/10/25 07:45:58;;;;;;;33.50;13.45;;;;;;;12.54;100.00;100482.25;4928887;28;20043;-76
2022/10/25 07:48:24;;;;;;;37.53;13.60;;;;;;;12.59;100.00;100477.16;4915265;28;20039;-76
2022/10/25 07:50:49;;;;;;;31.53;11.17;;;;;;;12.60;100.00;100489.56;4906933;29;20047;-77
2022/10/25 07:53:15;;;;;;;29.58;12.60;;;;;;;12.55;100.00;100475.88;4918899;29;20035;-77
2022/10/25 07:55:40;;;;;;;27.33;12.43;;;;;;;12.65;100.00;100489.00;4941753;29;20098;-76
2022/10/25 07:58:08;;;;;;;22.37;11.73;;;;;;;12.73;100.00;100488.91;4940477;29;20524;-75
2022/10/25 08:00:35;;;;;;;34.35;11.95;;;;;;;12.73;100.00;100488.91;4923444;28;20110;-75
2022/10/25 08:03:01;;;;;;;24.20;11.45;;;;;;;12.79;100.00;100490.06;4907818;29;20023;-76
2022/10/25 08:05:26;;;;;;;26.67;10.05;;;;;;;12.72;100.00;100475.72;4938970;28;20452;-77
2022/10/25 08:07:52;;;;;;;22.67;10.20;;;;;;;12.72;100.00;100481.09;4946087;28;20847;-77
2022/10/25 08:10:19;;;;;;;24.13;11.23;;;;;;;12.81;100.00;100488.03;4938212;29;20060;-77
2022/10/25 08:12:47;;;;;;;22.77;11.63;;;;;;;12.82;100.00;100490.50;4941720;28;20058;-78
2022/10/25 08:15:13;;;;;;;22.25;11.02;;;;;;;12.78;100.00;100486.53;4921151;29;20090;-78
2022/10/25 08:17:38;;;;;;;26.20;12.02;;;;;;;12.86;100.00;100486.44;4935283;29;20071;-76
2022/10/25 08:20:04;;;;;;;24.47;10.07;;;;;;;13.57;100.00;100518.13;4943918;29;20089;-76
2022/10/25 08:22:29;;;;;;;23.27;9.73;;;;;;;13.73;100.00;100487.59;4939338;28;20386;-78
2022/10/25 08:24:54;;;;;;;27.77;9.23;;;;;;;13.64;100.00;100470.75;4932985;29;20043;-76
2022/10/25 08:27:20;;;;;;;24.03;10.47;;;;;;;13.42;100.00;100453.81;4935822;29;20461;-77
2022/10/25 08:29:46;;;;;;;26.03;10.03;;;;;;;13.50;100.00;100466.28;4932965;29;20047;-77
2022/10/25 08:32:11;;;;;;;22.45;9.68;;;;;;;13.55;100.00;100463.84;4937253;29;20039;-78
2022/10/25 08:34:36;;;;;;;18.17;9.40;;;;;;;13.46;100.00;100465.84;4938186;29;20042;-77
2022/10/25 08:37:02;;;;;;;25.40;10.37;;;;;;;13.37;100.00;100464.28;4934113;29;20043;-77
2022/10/25 08:39:27;;;;;;;26.03;11.53;;;;;;;13.35;100.00;100463.63;4936918;28;20039;-77
2022/10/25 08:41:57;;;;;;;19.00;9.07;;;;;;;13.24;100.00;100485.53;4932537;28;20032;-77
2022/10/25 08:44:41;;;;;;;20.90;9.90;;;;;;;13.44;100.00;100497.38;4936366;29;20038;-77
2022/10/25 08:47:16;;;;;;;21.92;10.02;;;;;;;13.30;100.00;100487.50;4941875;29;20031;-76
2022/10/25 08:50:13;;;;;;;19.67;10.30;;;;;;;13.29;100.00;100499.22;4933346;29;20043;-77
2022/10/25 08:52:48;;;;;;;18.52;10.20;;;;;;;13.24;100.00;100498.91;4934719;29;20294;-75
2022/10/25 08:55:34;;;;;;;21.17;9.50;;;;;;;13.21;100.00;100510.03;4931806;29;20036;-76
2022/10/25 08:58:04;;;;;;;17.60;9.77;;;;;;;13.24;100.00;100521.19;4928763;29;20040;-76
2022/10/25 09:00:36;;;;;;;24.05;9.73;;;;;;;13.37;100.00;100525.94;4917257;28;20342;-76
2022/10/25 09:03:02;;;;;;;26.83;10.05;;;;;;;13.35;100.00;100527.16;4928416;29;20050;-76
2022/10/25 09:05:40;;;;;;;22.48;9.77;;;;;;;13.33;100.00;100540.75;4919366;28;20471;-75
2022/10/25 09:08:14;;;;;;;22.52;9.40;;;;;;;13.33;100.00;100551.47;4941180;29;20620;-76
2022/10/25 09:10:59;;;;;;;20.58;10.35;;;;;;;13.32;100.00;100539.06;4928868;29;20497;-76
2022/10/25 09:13:34;;;;;;;20.20;9.45;;;;;;;13.58;100.00;100564.56;4934526;29;20456;-76
2022/10/25 09:16:16;;;;;;;24.38;10.00;;;;;;;13.45;100.00;100544.59;4936283;28;20245;-76
2022/10/25 09:18:49;;;;;;;22.83;10.00;;;;;;;13.46;100.00;100551.66;4935582;28;20035;-76
2022/10/25 09:21:35;;;;;;;20.55;8.95;;;;;;;13.55;100.00;100551.53;4932795;29;20114;-76
2022/10/25 09:24:10;;;;;;;26.10;9.75;;;;;;;13.55;100.00;100552.38;4930568;29;20038;-76
2022/10/25 09:26:41;;;;;;;21.65;9.77;;;;;;;13.53;100.00;100540.97;4917111;29;20036;-75
2022/10/25 09:29:17;;;;;;;24.63;8.98;;;;;;;13.51;100.00;100554.59;4933871;29;20078;-76
2022/10/25 09:31:47;;;;;;;29.27;10.82;;;;;;;13.39;100.00;100544.50;4916614;29;20090;-76
2022/10/25 09:34:15;;;;;;;27.42;10.50;;;;;;;13.46;100.00;100546.28;4937174;29;20058;-75
2022/10/25 09:36:51;;;;;;;20.08;9.52;;;;;;;13.39;100.00;100545.38;4932821;28;20032;-76
2022/10/25 09:39:27;;;;;;;20.67;8.43;;;;;;;13.44;100.00;100555.53;4929221;29;20031;-76
2022/10/25 09:41:54;;;;;;;18.95;9.32;;;;;;;13.52;100.00;100560.78;4938535;29;20210;-76
2022/10/25 09:44:42;;;;;;;24.02;9.18;;;;;;;13.61;100.00;100569.56;4933212;29;20031;-76
2022/10/25 09:47:36;;;;;;;23.88;8.35;;;;;;;13.62;100.00;100558.63;4941821;28;20073;-74
2022/10/25 09:50:23;;;;;;;21.20;9.77;;;;;;;13.50;100.00;100544.88;4918313;29;20126;-76
2022/10/25 09:53:10;;;;;;;18.45;7.90;;;;;;;13.58;100.00;100559.19;4952420;28;20046;-75
2022/10/25 09:55:57;;;;;;;21.27;9.00;;;;;;;13.47;100.00;100558.66;4910611;29;20038;-76
2022/10/25 09:58:26;;;;;;;17.88;7.90;;;;;;;13.54;100.00;100557.94;4935908;28;20082;-74
2022/10/25 10:00:54;;;;;;;21.38;8.15;;;;;;;13.95;100.00;100577.00;4938689;28;20698;-76
2022/10/25 10:03:21;;;;;;;15.48;7.35;;;;;;;13.93;100.00;100526.22;4932628;28;20050;-76
2022/10/25 10:05:51;;;;;;;17.13;7.35;;;;;;;14.07;100.00;100515.59;4936412;29;20046;-76
2022/10/25 10:08:17;;;;;;;19.63;7.68;;;;;;;13.87;100.00;100502.81;4934948;29;20207;-75
2022/10/25 10:10:45;;;;;;;16.90;6.47;;;;;;;14.23;100.00;100552.13;4933209;28;20497;-76
2022/10/25 10:13:17;;;;;;;18.35;7.53;;;;;;;14.25;100.00;100528.59;4934659;29;20481;-75
2022/10/25 10:15:54;;;;;;;19.40;7.15;;;;;;;14.49;100.00;100520.16;4932214;28;20142;-76
2022/10/25 10:18:28;;;;;;;17.50;7.25;;;;;;;14.22;100.00;100499.44;4933691;28;20413;-75
2022/10/25 10:21:01;;;;;;;17.92;7.07;;;;;;;14.03;100.00;100504.44;4938563;28;20134;-75
2022/10/25 10:23:30;;;;;;;14.10;6.10;;;;;;;14.06;100.00;100519.31;4948834;28;20379;-76
2022/10/25 10:25:59;;;;;;;17.55;6.45;;;;;;;13.91;100.00;100509.47;4922270;29;20363;-77
2022/10/25 10:28:24;;;;;;;17.38;7.38;;;;;;;14.04;100.00;100538.28;4931074;29;20039;-76
2022/10/25 10:30:56;;;;;;;15.83;6.30;;;;;;;14.09;100.00;100543.94;4929970;29;20043;-75
2022/10/25 10:33:30;;;;;;;17.42;5.88;;;;;;;14.32;100.00;100567.91;4934964;29;20489;-77
2022/10/25 10:36:15;;;;;;;16.17;5.90;;;;;;;14.82;100.00;100568.00;4925976;29;20114;-76
2022/10/25 10:38:41;;;;;;;14.15;6.05;;;;;;;14.58;100.00;100491.31;4935452;29;20036;-76
2022/10/25 10:41:13;;;;;;;12.67;4.93;;;;;;;15.12;100.00;100498.69;4933326;29;20046;-76
2022/10/25 10:43:39;;;;;;;13.18;4.30;;;;;;;15.30;100.00;100438.19;4933070;28;20621;-76
2022/10/25 10:46:16;;;;;;;12.82;5.65;;;;;;;14.81;100.00;100354.00;4936074;29;20035;-76
2022/10/25 10:48:43;;;;;;;21.75;4.75;;;;;;;14.77;100.00;100412.72;4932458;28;20474;-76
2022/10/25 10:51:18;;;;;;;15.13;5.13;;;;;;;14.57;100.00;100398.31;4933258;29;20023;-75
2022/10/25 10:53:43;;;;;;;10.80;3.95;;;;;;;14.47;100.00;100430.00;4930975;28;20048;-76
2022/10/25 10:56:19;;;;;;;12.13;4.13;;;;;;;14.19;100.00;100436.22;4933092;29;20422;-75
2022/10/25 10:58:48;;;;;;;17.35;4.55;;;;;;;14.42;100.00;100486.19;4948957;28;20165;-76
2022/10/25 11:01:29;;;;;;;15.35;4.03;;;;;;;14.64;100.00;100501.28;4937996;29;20043;-76
2022/10/25 11:03:59;;;;;;;10.70;3.67;;;;;;;14.75;100.00;100473.88;4934449;29;20040;-76
2022/10/25 11:06:30;;;;;;;8.25;3.80;;;;;;;14.62;100.00;100476.47;4910973;29;20027;-76
2022/10/25 11:09:11;;;;;;;16.17;3.47;;;;;;;14.61;100.00;100477.50;4937639;29;20036;-76
2022/10/25 11:11:38;;;;;;;8.95;3.40;;;;;;;14.66;100.00;100456.25;4939442;29;20552;-76
2022/10/25 11:14:11;;;;;;;14.07;3.58;;;;;;;14.50;100.00;100453.81;4936310;29;20034;-76
2022/10/25 11:16:46;;;;;;;17.30;4.28;;;;;;;14.46;100.00;100456.06;4935898;28;20453;-76
2022/10/25 11:19:41;;;;;;;14.15;3.03;;;;;;;14.45;100.00;100475.91;4935518;29;20039;-75